createdAt,value
2019-05-10T00:01:42.564Z,11.03
2019-05-10T00:04:32.241Z,11.78
2019-05-10T00:07:21.718Z,12.13
2019-05-10T00:09:52.315Z,13.45
2019-05-10T00:12:31.135Z,12.93
2019-05-10T00:15:02.642Z,10.93
2019-05-10T00:17:34.244Z,10.05
2019-05-10T00:20:07.377Z,8.23
2019-05-10T00:22:38.760Z,9.08
2019-05-10T00:25:10.227Z,8.80
2019-05-10T00:27:41.677Z,10.15
2019-05-10T00:30:13.406Z,11.95
2019-05-10T00:32:44.913Z,8.23
2019-05-10T00:35:16.231Z,11.20
2019-05-10T00:37:47.781Z,8.63
2019-05-10T00:40:19.052Z,10.23
2019-05-10T00:42:50.451Z,8.28
2019-05-10T00:45:21.822Z,9.95
2019-05-10T00:47:53.146Z,9.78
2019-05-10T00:50:24.543Z,10.35
2019-05-10T00:52:56.019Z,10.38
2019-05-10T00:55:27.419Z,10.60
2019-05-10T00:57:58.788Z,10.88
2019-05-10T01:00:30.259Z,10.78
2019-05-10T01:03:01.753Z,12.90
2019-05-10T01:05:33.214Z,12.18
2019-05-10T01:08:04.660Z,15.88
2019-05-10T01:10:36.012Z,19.05
2019-05-10T01:13:07.465Z,15.58
2019-05-10T01:15:38.912Z,13.32
2019-05-10T01:18:10.362Z,15.58
2019-05-10T01:20:41.805Z,14.00
2019-05-10T01:23:13.266Z,20.17
2019-05-10T01:25:45.732Z,19.32
2019-05-10T01:28:17.100Z,18.70
2019-05-10T01:30:48.705Z,22.48
2019-05-10T01:33:20.181Z,19.48
2019-05-10T01:35:51.559Z,19.92
2019-05-10T01:38:23.012Z,21.80
2019-05-10T01:40:54.537Z,22.00
2019-05-10T01:43:25.925Z,20.48
2019-05-10T01:45:57.309Z,20.15
2019-05-10T01:48:28.762Z,17.98
2019-05-10T01:51:00.244Z,21.48
2019-05-10T01:53:31.784Z,17.60
2019-05-10T01:56:03.220Z,22.35
2019-05-10T01:58:34.674Z,23.07
2019-05-10T02:01:06.042Z,19.15
2019-05-10T02:03:37.389Z,22.17
2019-05-10T02:06:08.831Z,23.57
2019-05-10T02:08:40.282Z,24.25
2019-05-10T02:11:11.627Z,20.08
2019-05-10T02:13:43.067Z,22.50
2019-05-10T02:16:14.426Z,21.60
2019-05-10T02:18:46.998Z,25.70
2019-05-10T02:21:18.550Z,21.75
2019-05-10T02:23:50.097Z,21.30
2019-05-10T02:26:21.564Z,26.05
2019-05-10T02:28:53.010Z,25.90
2019-05-10T02:31:25.575Z,26.70
2019-05-10T02:33:57.147Z,26.15
2019-05-10T02:36:28.585Z,25.45
2019-05-10T02:38:59.948Z,24.00
2019-05-10T02:41:31.309Z,24.65
2019-05-10T02:44:02.731Z,23.30
2019-05-10T02:46:34.129Z,27.00
2019-05-10T02:49:05.524Z,26.55
2019-05-10T02:51:36.975Z,27.52
2019-05-10T02:54:08.424Z,24.37
2019-05-10T02:56:40.029Z,27.10
2019-05-10T02:59:13.839Z,21.80
2019-05-10T03:01:46.077Z,24.10
2019-05-10T03:04:17.498Z,25.45
2019-05-10T03:06:51.900Z,31.65
2019-05-10T03:09:26.240Z,29.48
2019-05-10T03:12:00.501Z,27.37
2019-05-10T03:14:34.796Z,27.90
2019-05-10T03:17:08.214Z,27.10
2019-05-10T03:19:40.936Z,28.92
2019-05-10T03:22:14.031Z,31.00
2019-05-10T03:24:45.480Z,23.55
2019-05-10T03:27:17.013Z,29.27
2019-05-10T03:29:48.506Z,26.33
2019-05-10T03:32:19.925Z,23.90
2019-05-10T03:34:51.382Z,26.50
2019-05-10T03:37:22.785Z,19.65
2019-05-10T03:39:54.148Z,20.20
2019-05-10T03:42:25.651Z,18.92
2019-05-10T03:44:57.077Z,18.77
2019-05-10T03:47:28.648Z,19.95
2019-05-10T03:50:00.092Z,17.82
2019-05-10T03:52:31.638Z,17.73
2019-05-10T03:55:03.077Z,17.75
2019-05-10T03:57:34.532Z,22.07
2019-05-10T04:00:08.502Z,20.97
2019-05-10T04:02:39.910Z,20.72
2019-05-10T04:05:12.193Z,20.70
2019-05-10T04:07:43.697Z,17.00
2019-05-10T04:10:15.065Z,16.30
2019-05-10T04:12:46.648Z,16.48
2019-05-10T04:15:17.972Z,20.40
2019-05-10T04:17:50.347Z,21.87
2019-05-10T04:20:22.076Z,21.95
2019-05-10T04:22:53.476Z,22.55
2019-05-10T04:25:24.882Z,22.00
2019-05-10T04:27:56.405Z,24.60
2019-05-10T04:30:31.692Z,22.02
2019-05-10T04:33:00.970Z,25.10
2019-05-10T04:35:32.338Z,25.30
2019-05-10T04:38:03.940Z,22.37
2019-05-10T04:40:35.314Z,26.25
2019-05-10T04:43:06.785Z,25.08
2019-05-10T04:45:38.162Z,28.10
2019-05-10T04:48:09.747Z,25.57
2019-05-10T04:50:41.216Z,30.50
2019-05-10T04:53:12.588Z,31.40
2019-05-10T04:55:44.015Z,27.30
2019-05-10T04:58:15.403Z,24.43
2019-05-10T05:00:46.826Z,30.17
2019-05-10T05:03:18.280Z,29.20
2019-05-10T05:05:49.645Z,30.77
2019-05-10T05:08:21.061Z,27.00
2019-05-10T05:10:53.147Z,24.43
2019-05-10T05:13:24.596Z,26.12
2019-05-10T05:15:55.967Z,31.10
2019-05-10T05:18:27.407Z,26.55
2019-05-10T05:20:58.949Z,30.52
2019-05-10T05:23:30.394Z,23.45
2019-05-10T05:26:01.985Z,26.33
2019-05-10T05:28:33.483Z,21.90
2019-05-10T05:31:04.946Z,23.62
2019-05-10T05:33:36.320Z,20.90
2019-05-10T05:36:07.834Z,20.85
2019-05-10T05:38:40.643Z,21.45
2019-05-10T05:41:12.292Z,18.37
2019-05-10T05:43:46.197Z,19.30
2019-05-10T05:46:16.934Z,17.07
2019-05-10T05:48:51.296Z,16.55
2019-05-10T05:51:21.522Z,16.40
2019-05-10T05:53:53.069Z,13.93
2019-05-10T05:56:24.629Z,17.95
2019-05-10T05:58:56.126Z,16.35
2019-05-10T06:01:29.493Z,16.20
2019-05-10T06:04:06.311Z,15.13
2019-05-10T06:06:34.003Z,13.45
2019-05-10T06:09:07.478Z,13.93
2019-05-10T06:11:38.933Z,15.43
2019-05-10T06:14:12.595Z,14.28
2019-05-10T06:16:45.278Z,11.63
2019-05-10T06:19:20.576Z,11.12
2019-05-10T06:21:49.690Z,11.95
2019-05-10T06:24:21.095Z,11.33
2019-05-10T06:26:52.555Z,12.68
2019-05-10T06:29:24.088Z,19.23
2019-05-10T06:31:58.710Z,11.28
2019-05-10T06:34:32.068Z,44.25
2019-05-10T06:37:01.862Z,12.78
2019-05-10T06:39:33.270Z,13.83
2019-05-10T06:42:04.758Z,24.18
2019-05-10T06:44:36.163Z,15.60
2019-05-10T06:47:08.751Z,12.82
2019-05-10T06:49:48.279Z,23.00
2019-05-10T06:52:16.265Z,11.30
2019-05-10T06:54:46.826Z,12.30
2019-05-10T06:57:19.386Z,9.60
2019-05-10T06:59:50.717Z,11.33
2019-05-10T07:02:26.727Z,12.58
2019-05-10T07:04:55.370Z,10.55
2019-05-10T07:07:43.150Z,8.20
2019-05-10T07:10:08.389Z,8.18
2019-05-10T07:12:32.745Z,9.63
2019-05-10T07:15:06.588Z,11.43
2019-05-10T07:17:43.636Z,10.05
2019-05-10T07:20:11.235Z,10.88
2019-05-10T07:22:42.804Z,16.93
2019-05-10T07:25:14.283Z,8.93
2019-05-10T07:27:45.522Z,9.63
2019-05-10T07:30:19.819Z,15.90
2019-05-10T07:32:54.517Z,12.43
2019-05-10T07:35:24.304Z,14.90
2019-05-10T07:37:55.748Z,10.15
2019-05-10T07:40:27.823Z,12.18
2019-05-10T07:42:59.328Z,14.07
2019-05-10T07:45:30.854Z,12.23
2019-05-10T07:48:07.890Z,13.08
2019-05-10T07:50:35.378Z,15.13
2019-05-10T07:53:06.837Z,14.05
2019-05-10T07:55:38.336Z,13.15
2019-05-10T07:58:09.830Z,12.00
2019-05-10T08:00:44.498Z,14.87
2019-05-10T08:03:17.661Z,11.08
2019-05-10T08:05:54.986Z,12.20
2019-05-10T08:08:20.720Z,11.60
2019-05-10T08:10:52.104Z,10.48
2019-05-10T08:13:25.213Z,10.63
2019-05-10T08:18:30.650Z,10.95
2019-05-10T08:21:10.691Z,12.05
2019-05-10T08:23:35.204Z,10.65
2019-05-10T08:26:11.038Z,13.55
2019-05-10T08:28:42.236Z,13.80
2019-05-10T08:31:13.211Z,11.83
2019-05-10T08:33:53.682Z,11.93
2019-05-10T08:36:18.827Z,14.13
2019-05-10T08:39:01.516Z,18.57
2019-05-10T08:41:23.441Z,17.73
2019-05-10T08:43:54.850Z,21.23
2019-05-10T08:46:34.982Z,24.92
2019-05-10T08:49:01.929Z,28.25
2019-05-10T08:51:34.507Z,24.12
2019-05-10T08:54:06.014Z,24.50
2019-05-10T08:56:37.569Z,24.35
2019-05-10T08:59:14.313Z,21.75
2019-05-10T09:01:46.935Z,15.32
2019-05-10T09:04:15.302Z,15.15
2019-05-10T09:06:47.646Z,17.17
2019-05-10T09:09:19.908Z,13.28
2019-05-10T09:11:52.248Z,11.93
2019-05-10T09:14:24.211Z,12.58
2019-05-10T09:17:00.524Z,14.43
2019-05-10T09:19:39.601Z,14.58
2019-05-10T09:22:02.170Z,17.15
2019-05-10T09:24:34.857Z,14.78
2019-05-10T09:27:06.937Z,14.18
2019-05-10T09:29:38.393Z,13.68
2019-05-10T09:32:12.406Z,16.73
2019-05-10T09:34:43.252Z,19.48
2019-05-10T09:37:17.699Z,15.60
2019-05-10T09:39:54.924Z,16.45
2019-05-10T09:42:26.474Z,18.52
2019-05-10T09:44:54.160Z,14.73
2019-05-10T09:47:25.643Z,14.18
2019-05-10T09:49:58.939Z,11.40
2019-05-10T09:52:30.645Z,13.83
2019-05-10T09:55:04.069Z,11.30
2019-05-10T09:57:38.034Z,9.65
2019-05-10T10:00:10.392Z,9.33
2019-05-10T10:02:47.852Z,10.72
2019-05-10T10:05:17.786Z,14.58
2019-05-10T10:07:48.270Z,12.45
2019-05-10T10:10:29.012Z,14.60
2019-05-10T10:12:58.425Z,12.18
2019-05-10T10:15:33.610Z,8.35
2019-05-10T10:18:00.315Z,11.57
2019-05-10T10:20:35.951Z,11.38
2019-05-10T10:23:07.324Z,7.58
2019-05-10T10:25:40.880Z,11.95
2019-05-10T10:28:22.560Z,14.60
2019-05-10T10:30:50.417Z,9.60
2019-05-10T10:33:25.373Z,13.48
2019-05-10T10:35:56.518Z,9.50
2019-05-10T10:38:30.641Z,8.73
2019-05-10T10:40:59.860Z,12.00
2019-05-10T10:43:31.378Z,15.18
2019-05-10T10:46:02.951Z,6.95
2019-05-10T10:48:36.835Z,6.65
2019-05-10T10:51:08.168Z,8.13
2019-05-10T10:53:39.819Z,8.48
2019-05-10T10:56:11.125Z,9.10
2019-05-10T10:58:42.611Z,10.40
2019-05-10T11:01:21.405Z,7.70
2019-05-10T11:03:48.931Z,6.53
2019-05-10T11:06:20.626Z,7.03
2019-05-10T11:08:52.020Z,10.18
2019-05-10T11:11:23.510Z,8.63
2019-05-10T11:14:00.659Z,9.53
2019-05-10T11:16:27.929Z,7.65
2019-05-10T11:19:03.687Z,6.70
2019-05-10T11:21:33.409Z,5.22
2019-05-10T11:24:10.512Z,4.83
2019-05-10T11:26:38.015Z,7.12
2019-05-10T11:29:15.885Z,8.18
2019-05-10T11:31:42.570Z,6.65
2019-05-10T11:34:13.944Z,6.35
2019-05-10T11:36:45.961Z,4.85
2019-05-10T11:39:26.183Z,4.70
2019-05-10T11:42:00.971Z,6.95
2019-05-10T11:44:25.944Z,5.25
2019-05-10T11:46:57.373Z,6.47
2019-05-10T11:49:30.750Z,11.28
2019-05-10T11:52:02.041Z,13.32
2019-05-10T11:54:33.616Z,15.63
2019-05-10T11:57:09.775Z,9.93
2019-05-10T11:59:41.458Z,32.17
2019-05-10T12:02:33.934Z,15.38
2019-05-10T12:04:45.451Z,9.68
2019-05-10T12:07:24.645Z,13.25
2019-05-10T12:09:53.329Z,9.75
2019-05-10T12:12:30.645Z,9.38
2019-05-10T12:14:57.039Z,4.45
2019-05-10T12:17:28.327Z,5.95
2019-05-10T12:20:02.555Z,3.67
2019-05-10T12:22:38.188Z,4.00
2019-05-10T12:25:32.316Z,3.80
2019-05-10T12:27:47.874Z,4.85
2019-05-10T12:30:16.114Z,7.97
2019-05-10T12:32:56.514Z,7.87
2019-05-10T12:35:21.491Z,4.37
2019-05-10T12:37:54.058Z,6.72
2019-05-10T12:40:25.848Z,5.15
2019-05-10T12:42:57.269Z,3.80
2019-05-10T12:45:30.843Z,4.50
2019-05-10T12:48:01.843Z,3.58
2019-05-10T12:50:33.196Z,3.70
2019-05-10T12:53:14.195Z,7.42
2019-05-10T12:55:37.653Z,4.70
2019-05-10T12:58:08.925Z,4.40
2019-05-10T13:00:40.491Z,8.00
2019-05-10T13:03:13.398Z,4.10
2019-05-10T13:05:52.734Z,3.00
2019-05-10T13:08:18.260Z,4.60
2019-05-10T13:10:50.113Z,2.92
2019-05-10T13:13:23.696Z,5.10
2019-05-10T13:15:54.501Z,6.37
2019-05-10T13:18:48.147Z,7.58
2019-05-10T13:20:58.846Z,4.80
2019-05-10T13:23:30.278Z,7.20
2019-05-10T13:26:01.606Z,7.40
2019-05-10T13:28:32.978Z,3.52
2019-05-10T13:31:05.546Z,4.47
2019-05-10T13:33:41.765Z,5.15
2019-05-10T13:36:11.876Z,5.22
2019-05-10T13:38:48.576Z,11.18
2019-05-10T13:41:17.995Z,8.25
2019-05-10T13:43:49.461Z,6.95
2019-05-10T13:46:21.519Z,5.03
2019-05-10T13:48:52.787Z,9.78
2019-05-10T13:51:24.157Z,5.67
2019-05-10T13:53:58.917Z,5.28
2019-05-10T13:56:28.591Z,6.45
2019-05-10T13:59:13.790Z,6.40
2019-05-10T14:01:32.942Z,6.28
2019-05-10T14:04:04.236Z,11.65
2019-05-10T14:06:35.627Z,9.35
2019-05-10T14:09:08.451Z,10.70
2019-05-10T14:11:41.849Z,11.68
2019-05-10T14:14:14.666Z,7.78
2019-05-10T14:16:46.227Z,8.98
2019-05-10T14:19:23.150Z,6.62
2019-05-10T14:21:50.654Z,13.10
2019-05-10T14:24:22.175Z,10.15
2019-05-10T14:26:57.096Z,10.43
2019-05-10T14:29:34.341Z,10.73
2019-05-10T14:32:01.001Z,13.68
2019-05-10T14:34:32.463Z,9.70
2019-05-10T14:37:03.763Z,9.65
2019-05-10T14:39:35.033Z,11.18
2019-05-10T14:42:09.322Z,10.58
2019-05-10T14:44:39.725Z,12.98
2019-05-10T14:47:11.350Z,18.02
2019-05-10T14:49:47.058Z,9.28
2019-05-10T14:52:15.957Z,9.83
2019-05-10T14:54:49.833Z,14.65
2019-05-10T14:57:20.405Z,10.65
2019-05-10T14:59:51.697Z,10.32
2019-05-10T15:02:25.015Z,9.80
2019-05-10T15:04:56.263Z,12.15
2019-05-10T15:07:27.712Z,14.45
2019-05-10T15:10:00.243Z,10.82
2019-05-10T15:12:32.409Z,11.78
2019-05-10T15:15:04.246Z,11.00
2019-05-10T15:17:35.658Z,8.85
2019-05-10T15:20:08.452Z,11.95
2019-05-10T15:22:39.911Z,6.15
2019-05-10T15:25:12.195Z,5.95
2019-05-10T15:27:43.637Z,7.65
2019-05-10T15:30:15.220Z,12.73
2019-05-10T15:32:46.559Z,7.20
2019-05-10T15:35:17.908Z,8.85
2019-05-10T15:37:49.315Z,8.38
2019-05-10T15:40:21.016Z,5.97
2019-05-10T15:42:52.406Z,9.23
2019-05-10T15:45:23.728Z,8.75
2019-05-10T15:47:57.580Z,8.25
2019-05-10T15:50:32.615Z,9.88
2019-05-10T15:53:01.619Z,6.20
2019-05-10T15:55:33.982Z,7.97
2019-05-10T15:58:05.330Z,8.68
2019-05-10T16:00:39.338Z,5.15
2019-05-10T16:03:09.850Z,6.67
2019-05-10T16:05:43.845Z,6.12
2019-05-10T16:08:14.281Z,7.62
2019-05-10T16:10:45.585Z,6.42
2019-05-10T16:13:23.271Z,7.97
2019-05-10T16:15:51.757Z,6.00
2019-05-10T16:18:23.164Z,7.85
2019-05-10T16:20:54.464Z,8.55
2019-05-10T16:23:25.766Z,5.55
2019-05-10T16:25:57.228Z,7.50
2019-05-10T16:28:28.557Z,10.08
2019-05-10T16:31:00.118Z,9.00
2019-05-10T16:33:31.449Z,7.42
2019-05-10T16:36:02.770Z,7.87
2019-05-10T16:38:34.247Z,8.18
2019-05-10T16:41:05.608Z,14.93
2019-05-10T16:43:37.147Z,9.55
2019-05-10T16:46:08.495Z,15.08
2019-05-10T16:48:39.947Z,7.53
2019-05-10T16:51:12.809Z,12.50
2019-05-10T16:53:45.983Z,12.58
2019-05-10T16:56:18.669Z,8.58
2019-05-10T16:58:53.016Z,12.93
2019-05-10T17:01:25.736Z,13.32
2019-05-10T17:04:00.147Z,20.52
2019-05-10T17:06:29.998Z,15.40
2019-05-10T17:09:01.486Z,23.70
2019-05-10T17:11:33.692Z,30.90
2019-05-10T17:14:05.290Z,26.85
2019-05-10T17:16:36.815Z,28.60
2019-05-10T17:19:08.329Z,31.85
2019-05-10T17:21:39.794Z,26.95
2019-05-10T17:24:11.461Z,27.48
2019-05-10T17:26:43.119Z,23.60
2019-05-10T17:29:14.877Z,25.48
2019-05-10T17:31:47.749Z,26.97
2019-05-10T17:34:27.881Z,28.62
2019-05-10T17:36:57.845Z,27.55
2019-05-10T17:39:31.450Z,26.48
2019-05-10T17:42:03.027Z,23.45
2019-05-10T17:44:32.231Z,27.22
2019-05-10T17:47:03.527Z,27.37
2019-05-10T17:49:35.132Z,21.73
2019-05-10T17:52:06.620Z,46.50
2019-05-10T17:54:39.358Z,20.80
2019-05-10T17:57:16.809Z,23.85
2019-05-10T17:59:46.934Z,24.75
2019-05-10T18:02:17.540Z,24.25
2019-05-10T18:04:50.308Z,21.95
2019-05-10T18:07:21.676Z,22.42
2019-05-10T18:09:53.297Z,22.98
2019-05-10T18:12:27.101Z,27.35
2019-05-10T18:14:58.022Z,24.57
2019-05-10T18:17:29.550Z,29.72
2019-05-10T18:20:02.395Z,24.07
2019-05-10T18:22:41.837Z,24.55
2019-05-10T18:25:13.186Z,22.27
2019-05-10T18:27:40.799Z,28.38
2019-05-10T18:30:12.721Z,30.30
2019-05-10T18:32:45.370Z,38.23
2019-05-10T18:35:17.182Z,35.68
2019-05-10T18:37:53.706Z,34.67
2019-05-10T18:40:25.399Z,36.53
2019-05-10T18:42:57.712Z,73.95
2019-05-10T18:45:29.826Z,43.30
2019-05-10T18:48:01.663Z,40.67
2019-05-10T18:50:33.164Z,46.45
2019-05-10T18:53:04.547Z,40.83
2019-05-10T18:55:35.967Z,35.88
2019-05-10T18:58:07.453Z,36.55
2019-05-10T19:00:40.276Z,35.88
2019-05-10T19:03:11.697Z,29.82
2019-05-10T19:05:43.192Z,24.67
2019-05-10T19:08:14.704Z,26.85
2019-05-10T19:10:46.228Z,26.42
2019-05-10T19:13:18.314Z,27.13
2019-05-10T19:15:53.101Z,28.50
2019-05-10T19:18:25.423Z,30.62
2019-05-10T19:20:56.588Z,27.42
2019-05-10T19:23:28.028Z,26.27
2019-05-10T19:25:59.604Z,29.25
2019-05-10T19:28:31.048Z,29.40
2019-05-10T19:31:02.485Z,33.98
2019-05-10T19:33:36.162Z,33.65
2019-05-10T19:36:12.187Z,29.18
2019-05-10T19:38:40.480Z,29.48
2019-05-10T19:41:11.981Z,30.72
2019-05-10T19:43:43.357Z,30.85
2019-05-10T19:46:14.880Z,28.85
2019-05-10T19:48:46.277Z,28.83
2019-05-10T19:51:17.691Z,27.10
2019-05-10T19:53:49.176Z,26.57
2019-05-10T19:56:20.745Z,24.77
2019-05-10T19:58:52.101Z,28.80
2019-05-10T20:01:23.581Z,24.20
2019-05-10T20:03:54.953Z,23.80
2019-05-10T20:06:26.380Z,20.95
2019-05-10T20:08:57.773Z,23.77
2019-05-10T20:11:29.195Z,21.75
2019-05-10T20:14:00.675Z,21.70
2019-05-10T20:16:32.169Z,22.00
2019-05-10T20:19:03.774Z,19.37
2019-05-10T20:21:35.243Z,21.45
2019-05-10T20:24:08.497Z,22.10
2019-05-10T20:26:40.033Z,20.68
2019-05-10T20:29:11.761Z,21.73
2019-05-10T20:31:43.177Z,23.00
2019-05-10T20:34:14.623Z,24.10
2019-05-10T20:36:46.099Z,24.70
2019-05-10T20:39:17.534Z,24.23
2019-05-10T20:41:49.146Z,26.57
2019-05-10T20:44:20.380Z,24.35
2019-05-10T20:46:51.814Z,25.37
2019-05-10T20:49:23.188Z,23.85
2019-05-10T20:51:54.731Z,22.32
2019-05-10T20:54:26.133Z,23.38
2019-05-10T20:56:57.593Z,23.07
2019-05-10T20:59:28.992Z,23.20
2019-05-10T21:02:00.404Z,22.40
2019-05-10T21:04:32.934Z,21.37
2019-05-10T21:07:04.445Z,17.82
2019-05-10T21:09:36.040Z,21.25
2019-05-10T21:12:07.545Z,19.35
2019-05-10T21:14:38.907Z,20.77
2019-05-10T21:17:10.726Z,21.82
2019-05-10T21:19:43.275Z,16.75
2019-05-10T21:22:15.435Z,20.37
2019-05-10T21:24:46.830Z,21.27
2019-05-10T21:27:18.305Z,15.32
2019-05-10T21:29:49.823Z,18.98
2019-05-10T21:32:21.420Z,17.30
2019-05-10T21:34:52.908Z,16.12
2019-05-10T21:37:24.347Z,15.78
2019-05-10T21:39:55.708Z,16.20
2019-05-10T21:42:27.310Z,15.20
2019-05-10T21:44:58.689Z,16.62
2019-05-10T21:47:30.122Z,16.05
2019-05-10T21:50:01.593Z,15.23
2019-05-10T21:52:33.078Z,15.20
2019-05-10T21:55:04.792Z,15.90
2019-05-10T21:57:36.198Z,16.85
2019-05-10T22:00:09.942Z,14.63
2019-05-10T22:02:43.040Z,17.15
2019-05-10T22:05:14.499Z,16.57
2019-05-10T22:07:45.990Z,14.73
2019-05-10T22:10:17.660Z,13.30
2019-05-10T22:12:49.284Z,12.65
2019-05-10T22:15:20.652Z,14.47
2019-05-10T22:17:52.193Z,16.37
2019-05-10T22:20:23.598Z,13.18
2019-05-10T22:22:55.085Z,15.85
2019-05-10T22:25:26.488Z,15.38
2019-05-10T22:27:58.106Z,17.02
2019-05-10T22:30:29.797Z,16.70
2019-05-10T22:33:01.291Z,14.05
2019-05-10T22:35:32.813Z,17.05
2019-05-10T22:38:04.294Z,16.35
2019-05-10T22:40:35.701Z,17.70
2019-05-10T22:43:07.288Z,15.53
2019-05-10T22:45:38.803Z,18.02
2019-05-10T22:48:10.500Z,18.20
2019-05-10T22:50:41.843Z,17.70
2019-05-10T22:53:13.342Z,22.42
2019-05-10T22:55:44.806Z,18.85
2019-05-10T22:58:16.292Z,16.35
2019-05-10T23:00:47.702Z,16.32
2019-05-10T23:03:24.173Z,18.30
2019-05-10T23:05:53.070Z,21.05
2019-05-10T23:08:24.551Z,17.73
2019-05-10T23:10:55.972Z,19.35
2019-05-10T23:13:27.475Z,19.05
2019-05-10T23:15:58.975Z,18.73
2019-05-10T23:18:30.397Z,17.20
2019-05-10T23:21:03.515Z,19.30
2019-05-10T23:23:34.939Z,17.50
2019-05-10T23:26:06.408Z,18.17
2019-05-10T23:28:37.811Z,18.70
2019-05-10T23:31:09.387Z,19.48
2019-05-10T23:33:41.016Z,16.60
2019-05-10T23:36:12.373Z,17.52
2019-05-10T23:38:43.862Z,16.97
2019-05-10T23:41:15.313Z,13.62
2019-05-10T23:43:46.748Z,13.35
2019-05-10T23:46:18.299Z,12.80
2019-05-10T23:48:49.811Z,15.15
2019-05-10T23:51:21.143Z,17.23
2019-05-10T23:53:52.522Z,12.18
2019-05-10T23:56:23.907Z,20.52
2019-05-10T23:58:55.303Z,15.80
